createdAt,value
2023-06-26T00:02:25.598Z,23.20
2023-06-26T00:04:54.976Z,23.21
2023-06-26T00:07:22.465Z,23.22
2023-06-26T00:09:50.924Z,23.16
2023-06-26T00:12:18.307Z,23.17
2023-06-26T00:14:45.472Z,23.15
2023-06-26T00:17:13.687Z,23.13
2023-06-26T00:19:40.701Z,23.11
2023-06-26T00:22:08.158Z,23.07
2023-06-26T00:24:35.444Z,23.01
2023-06-26T00:27:02.987Z,22.95
2023-06-26T00:29:30.166Z,22.93
2023-06-26T00:31:57.733Z,22.90
2023-06-26T00:34:24.809Z,22.92
2023-06-26T00:36:55.676Z,22.95
2023-06-26T00:39:22.688Z,22.94
2023-06-26T00:41:50.084Z,22.91
2023-06-26T00:44:17.243Z,22.86
2023-06-26T00:46:44.867Z,22.86
2023-06-26T00:49:12.026Z,22.85
2023-06-26T00:51:41.177Z,22.82
2023-06-26T00:54:08.443Z,22.79
2023-06-26T00:56:37.184Z,22.75
2023-06-26T00:59:04.370Z,22.72
2023-06-26T01:01:31.880Z,22.69
2023-06-26T01:03:59.265Z,22.64
2023-06-26T01:06:32.680Z,22.59
2023-06-26T01:09:01.238Z,22.61
2023-06-26T01:11:28.896Z,22.59
2023-06-26T01:14:01.052Z,22.51
2023-06-26T01:16:31.383Z,22.49
2023-06-26T01:18:59.639Z,22.47
2023-06-26T01:21:33.671Z,22.42
2023-06-26T01:24:21.506Z,22.40
2023-06-26T01:26:52.996Z,22.38
2023-06-26T01:29:25.946Z,22.36
2023-06-26T01:31:53.696Z,22.34
2023-06-26T01:34:21.566Z,22.30
2023-06-26T01:36:49.186Z,22.28
2023-06-26T01:39:20.353Z,22.24
2023-06-26T01:41:48.127Z,22.20
2023-06-26T01:44:31.213Z,22.16
2023-06-26T01:47:11.378Z,22.11
2023-06-26T01:50:02.843Z,22.12
2023-06-26T01:52:54.646Z,22.07
2023-06-26T01:55:37.435Z,21.96
2023-06-26T01:58:07.756Z,21.84
2023-06-26T02:00:36.424Z,21.80
2023-06-26T02:03:06.227Z,21.75
2023-06-26T02:05:34.418Z,21.71
2023-06-26T02:08:05.073Z,21.68
2023-06-26T02:10:32.551Z,21.63
2023-06-26T02:12:59.928Z,21.60
2023-06-26T02:15:27.298Z,21.54
2023-06-26T02:17:54.988Z,21.53
2023-06-26T02:20:22.239Z,21.54
2023-06-26T02:22:49.818Z,21.60
2023-06-26T02:25:17.869Z,21.50
2023-06-26T02:27:47.890Z,21.47
2023-06-26T02:30:15.091Z,21.44
2023-06-26T02:32:42.644Z,21.48
2023-06-26T02:35:10.120Z,21.53
2023-06-26T02:37:38.000Z,21.54
2023-06-26T02:40:06.349Z,21.51
2023-06-26T02:42:33.792Z,21.52
2023-06-26T02:45:00.842Z,21.50
2023-06-26T02:47:28.476Z,21.45
2023-06-26T02:49:58.553Z,21.49
2023-06-26T02:52:25.944Z,21.46
2023-06-26T02:54:52.973Z,21.47
2023-06-26T02:57:20.621Z,21.47
2023-06-26T02:59:47.797Z,21.46
2023-06-26T03:02:15.119Z,21.44
2023-06-26T03:04:44.339Z,21.44
2023-06-26T03:07:12.009Z,21.42
2023-06-26T03:09:39.073Z,21.40
2023-06-26T03:12:07.399Z,21.39
2023-06-26T03:14:34.724Z,21.35
2023-06-26T03:17:04.926Z,21.30
2023-06-26T03:19:32.254Z,21.26
2023-06-26T03:21:59.664Z,21.20
2023-06-26T03:24:26.857Z,21.20
2023-06-26T03:26:54.625Z,21.20
2023-06-26T03:29:21.848Z,21.20
2023-06-26T03:31:49.268Z,21.18
2023-06-26T03:34:19.374Z,21.20
2023-06-26T03:36:46.712Z,21.21
2023-06-26T03:39:13.847Z,21.21
2023-06-26T03:41:41.589Z,21.24
2023-06-26T03:44:08.823Z,21.27
2023-06-26T03:46:36.295Z,21.32
2023-06-26T03:49:03.704Z,21.33
2023-06-26T03:51:32.542Z,21.36
2023-06-26T03:53:59.864Z,21.31
2023-06-26T03:56:27.303Z,21.35
2023-06-26T03:58:54.490Z,21.32
2023-06-26T04:01:22.950Z,21.32
2023-06-26T04:03:50.192Z,21.29
2023-06-26T04:06:17.869Z,21.26
2023-06-26T04:08:44.853Z,21.22
2023-06-26T04:11:12.395Z,21.20
2023-06-26T04:13:39.469Z,21.16
2023-06-26T04:16:08.036Z,21.20
2023-06-26T04:18:35.453Z,21.14
2023-06-26T04:21:14.560Z,21.16
2023-06-26T04:23:42.341Z,21.30
2023-06-26T04:26:16.005Z,21.38
2023-06-26T04:28:44.334Z,21.39
2023-06-26T04:31:11.687Z,21.39
2023-06-26T04:33:41.844Z,21.44
2023-06-26T04:36:12.276Z,21.49
2023-06-26T04:38:39.543Z,21.53
2023-06-26T04:41:07.228Z,21.55
2023-06-26T04:43:34.560Z,21.58
2023-06-26T04:46:04.370Z,21.53
2023-06-26T04:48:34.108Z,21.54
2023-06-26T04:51:01.901Z,21.50
2023-06-26T04:53:29.384Z,21.52
2023-06-26T04:55:57.166Z,21.58
2023-06-26T04:58:24.423Z,21.60
2023-06-26T05:00:55.094Z,21.62
2023-06-26T05:03:23.489Z,21.69
2023-06-26T05:05:51.868Z,21.80
2023-06-26T05:08:25.614Z,21.91
2023-06-26T05:10:58.910Z,22.00
2023-06-26T05:13:27.321Z,22.08
2023-06-26T05:15:55.180Z,22.10
2023-06-26T05:18:22.315Z,22.15
2023-06-26T05:20:50.194Z,22.27
2023-06-26T05:23:18.064Z,22.37
2023-06-26T05:25:46.044Z,22.50
2023-06-26T05:28:14.648Z,22.51
2023-06-26T05:30:42.665Z,22.57
2023-06-26T05:33:13.847Z,22.70
2023-06-26T05:35:44.004Z,22.80
2023-06-26T05:38:11.937Z,22.87
2023-06-26T05:40:42.073Z,22.85
2023-06-26T05:43:10.370Z,22.99
2023-06-26T05:45:38.085Z,23.08
2023-06-26T05:48:06.195Z,23.13
2023-06-26T05:50:34.429Z,23.23
2023-06-26T05:53:08.112Z,23.31
2023-06-26T05:55:36.126Z,23.43
2023-06-26T05:58:04.240Z,23.52
2023-06-26T06:00:31.995Z,23.57
2023-06-26T06:02:59.149Z,23.66
2023-06-26T06:05:26.690Z,23.72
2023-06-26T06:07:53.943Z,23.74
2023-06-26T06:10:21.264Z,23.86
2023-06-26T06:12:48.620Z,23.94
2023-06-26T06:15:17.347Z,24.02
2023-06-26T06:17:44.623Z,24.07
2023-06-26T06:20:13.232Z,24.08
2023-06-26T06:22:40.295Z,24.08
2023-06-26T06:25:08.067Z,24.09
2023-06-26T06:27:35.236Z,24.12
2023-06-26T06:30:06.820Z,24.23
2023-06-26T06:32:36.206Z,24.31
2023-06-26T06:35:10.548Z,24.40
2023-06-26T06:37:41.155Z,24.58
2023-06-26T06:40:11.546Z,24.62
2023-06-26T06:42:38.966Z,24.67
2023-06-26T06:45:07.615Z,24.72
2023-06-26T06:47:35.439Z,24.88
2023-06-26T06:50:09.481Z,24.99
2023-06-26T06:52:42.035Z,25.12
2023-06-26T06:55:10.417Z,25.28
2023-06-26T06:57:40.070Z,25.26
2023-06-26T07:00:13.262Z,25.27
2023-06-26T07:02:42.977Z,25.31
2023-06-26T07:05:11.195Z,25.38
2023-06-26T07:07:40.514Z,25.53
2023-06-26T07:10:11.527Z,25.53
2023-06-26T07:12:39.430Z,25.57
2023-06-26T07:15:10.757Z,25.59
2023-06-26T07:17:41.074Z,25.68
2023-06-26T07:20:09.958Z,25.78
2023-06-26T07:22:38.450Z,25.81
2023-06-26T07:25:10.602Z,25.77
2023-06-26T07:27:39.579Z,25.84
2023-06-26T07:30:11.517Z,25.90
2023-06-26T07:32:39.902Z,25.95
2023-06-26T07:35:08.161Z,26.00
2023-06-26T07:37:35.538Z,26.06
2023-06-26T07:40:03.493Z,26.10
2023-06-26T07:42:30.859Z,26.14
2023-06-26T07:44:58.480Z,26.09
2023-06-26T07:47:25.659Z,26.14
2023-06-26T07:49:53.232Z,26.18
2023-06-26T07:52:20.955Z,26.24
2023-06-26T07:54:48.712Z,26.30
2023-06-26T07:57:16.073Z,26.26
2023-06-26T07:59:43.680Z,26.30
2023-06-26T08:02:11.048Z,26.35
2023-06-26T08:04:38.523Z,26.42
2023-06-26T08:07:06.266Z,26.37
2023-06-26T08:09:33.824Z,26.44
2023-06-26T08:12:01.232Z,26.53
2023-06-26T08:14:30.124Z,26.60
2023-06-26T08:16:57.614Z,26.61
2023-06-26T08:19:25.080Z,26.69
2023-06-26T08:21:52.377Z,26.76
2023-06-26T08:24:20.302Z,26.81
2023-06-26T08:26:49.201Z,26.94
2023-06-26T08:29:16.627Z,27.00
2023-06-26T08:31:44.575Z,27.07
2023-06-26T08:34:12.965Z,27.19
2023-06-26T08:36:40.126Z,27.27
2023-06-26T08:39:09.730Z,27.37
2023-06-26T08:41:37.504Z,27.35
2023-06-26T08:44:06.216Z,27.40
2023-06-26T08:46:35.012Z,27.46
2023-06-26T08:49:15.040Z,27.54
2023-06-26T08:51:51.950Z,27.57
2023-06-26T08:54:31.490Z,27.59
2023-06-26T08:57:00.229Z,27.61
2023-06-26T08:59:28.903Z,27.62
2023-06-26T09:01:56.321Z,27.62
2023-06-26T09:04:23.728Z,27.64
2023-06-26T09:06:50.849Z,27.68
2023-06-26T09:09:18.255Z,27.74
2023-06-26T09:11:45.375Z,27.77
2023-06-26T09:14:14.781Z,27.84
2023-06-26T09:16:43.639Z,27.88
2023-06-26T09:19:13.757Z,27.94
2023-06-26T09:21:43.986Z,28.00
2023-06-26T09:24:12.143Z,28.05
2023-06-26T09:26:41.232Z,28.11
2023-06-26T09:29:10.976Z,28.20
2023-06-26T09:31:42.879Z,28.26
2023-06-26T09:34:11.457Z,28.36
2023-06-26T09:36:40.513Z,28.41
2023-06-26T09:39:12.616Z,28.47
2023-06-26T09:41:43.696Z,28.55
2023-06-26T09:44:15.405Z,28.61
2023-06-26T09:46:46.795Z,28.67
2023-06-26T09:49:14.472Z,28.74
2023-06-26T09:51:43.786Z,28.76
2023-06-26T09:54:11.823Z,28.83
2023-06-26T09:56:39.262Z,28.84
2023-06-26T09:59:08.277Z,28.91
2023-06-26T10:01:42.553Z,28.97
2023-06-26T10:04:10.438Z,29.05
2023-06-26T10:06:46.150Z,29.09
2023-06-26T10:09:16.953Z,29.17
2023-06-26T10:12:08.702Z,29.23
2023-06-26T10:14:38.785Z,29.28
2023-06-26T10:17:11.401Z,29.33
2023-06-26T10:19:46.643Z,29.38
2023-06-26T10:22:18.947Z,29.43
2023-06-26T10:24:50.454Z,29.45
2023-06-26T10:27:21.475Z,29.50
2023-06-26T10:30:05.742Z,29.53
2023-06-26T10:32:34.673Z,29.63
2023-06-26T10:35:04.350Z,29.72
2023-06-26T10:37:48.339Z,29.86
2023-06-26T10:40:41.579Z,29.97
2023-06-26T10:43:11.037Z,30.12
2023-06-26T10:45:44.931Z,29.95
2023-06-26T10:48:16.267Z,29.87
2023-06-26T10:50:44.116Z,29.81
2023-06-26T10:53:28.931Z,29.90
2023-06-26T10:55:58.481Z,29.95
2023-06-26T10:58:41.782Z,29.99
2023-06-26T11:01:12.918Z,30.02
2023-06-26T11:03:42.367Z,30.12
2023-06-26T11:06:15.466Z,30.13
2023-06-26T11:09:12.505Z,30.02
2023-06-26T11:11:55.953Z,29.92
2023-06-26T11:14:24.980Z,29.89
2023-06-26T11:16:52.961Z,30.00
2023-06-26T11:19:21.528Z,30.09
2023-06-26T11:21:49.010Z,30.18
2023-06-26T11:24:17.097Z,30.15
2023-06-26T11:26:47.585Z,30.22
2023-06-26T11:29:14.776Z,30.38
2023-06-26T11:31:43.415Z,30.53
2023-06-26T11:34:14.010Z,30.62
2023-06-26T11:36:47.434Z,30.69
2023-06-26T11:39:14.630Z,30.73
2023-06-26T11:41:43.097Z,30.79
2023-06-26T11:44:11.808Z,30.91
2023-06-26T11:46:39.795Z,30.94
2023-06-26T11:49:08.958Z,30.96
2023-06-26T11:51:37.335Z,31.02
2023-06-26T11:54:05.902Z,31.00
2023-06-26T11:56:33.450Z,31.02
2023-06-26T11:59:05.589Z,31.06
2023-06-26T12:01:47.433Z,30.99
2023-06-26T12:04:20.693Z,31.01
2023-06-26T12:06:52.029Z,31.10
2023-06-26T12:09:22.949Z,31.08
2023-06-26T12:11:55.901Z,31.13
2023-06-26T12:14:26.284Z,31.15
2023-06-26T12:16:54.072Z,31.10
2023-06-26T12:19:29.420Z,31.16
2023-06-26T12:21:57.670Z,31.19
2023-06-26T12:24:26.696Z,31.24
2023-06-26T12:26:58.029Z,31.25
2023-06-26T12:29:35.319Z,31.32
2023-06-26T12:32:03.342Z,31.23
2023-06-26T12:34:34.965Z,31.29
2023-06-26T12:37:12.790Z,31.24
2023-06-26T12:39:49.459Z,31.09
2023-06-26T12:42:20.367Z,31.19
2023-06-26T12:44:48.368Z,31.28
2023-06-26T12:47:18.417Z,31.36
2023-06-26T12:49:51.411Z,31.48
2023-06-26T12:52:22.609Z,31.54
2023-06-26T12:54:55.186Z,31.59
2023-06-26T12:57:23.100Z,31.61
2023-06-26T12:59:50.503Z,31.60
2023-06-26T13:02:18.090Z,31.54
2023-06-26T13:04:45.753Z,31.57
2023-06-26T13:07:13.569Z,31.61
2023-06-26T13:09:42.130Z,31.62
2023-06-26T13:12:10.158Z,31.68
2023-06-26T13:14:37.696Z,31.78
2023-06-26T13:17:07.866Z,31.82
2023-06-26T13:19:36.791Z,31.84
2023-06-26T13:22:04.338Z,31.93
2023-06-26T13:24:31.567Z,31.93
2023-06-26T13:26:59.088Z,32.00
2023-06-26T13:29:26.466Z,32.00
2023-06-26T13:31:55.375Z,32.04
2023-06-26T13:34:24.668Z,32.09
2023-06-26T13:36:52.576Z,32.15
2023-06-26T13:39:20.043Z,32.23
2023-06-26T13:41:49.002Z,32.26
2023-06-26T13:44:35.871Z,32.21
2023-06-26T13:47:09.678Z,32.07
2023-06-26T13:49:37.765Z,32.12
2023-06-26T13:52:06.231Z,32.08
2023-06-26T13:54:33.353Z,32.16
2023-06-26T13:57:03.249Z,32.20
2023-06-26T13:59:30.394Z,32.06
2023-06-26T14:02:00.497Z,32.00
2023-06-26T14:04:27.863Z,31.96
2023-06-26T14:06:55.281Z,31.92
2023-06-26T14:09:22.962Z,31.88
2023-06-26T14:11:51.676Z,31.89
2023-06-26T14:14:18.941Z,31.94
2023-06-26T14:16:46.466Z,31.91
2023-06-26T14:19:15.676Z,31.93
2023-06-26T14:21:43.249Z,32.01
2023-06-26T14:24:10.684Z,32.07
2023-06-26T14:26:38.045Z,32.05
2023-06-26T14:29:05.023Z,32.06
2023-06-26T14:31:32.803Z,32.12
2023-06-26T14:34:00.375Z,32.30
2023-06-26T14:36:28.141Z,32.42
2023-06-26T14:38:55.384Z,32.61
2023-06-26T14:41:23.470Z,32.75
2023-06-26T14:43:51.496Z,32.85
2023-06-26T14:46:21.847Z,32.95
2023-06-26T14:48:49.802Z,32.99
2023-06-26T14:51:19.997Z,33.16
2023-06-26T14:53:49.633Z,33.23
2023-06-26T14:56:17.897Z,33.11
2023-06-26T14:58:48.417Z,33.14
2023-06-26T15:01:20.776Z,33.25
2023-06-26T15:03:48.740Z,33.22
2023-06-26T15:06:16.520Z,33.20
2023-06-26T15:08:43.603Z,33.21
2023-06-26T15:11:11.058Z,33.21
2023-06-26T15:13:38.165Z,33.26
2023-06-26T15:16:08.520Z,33.25
2023-06-26T15:18:35.630Z,33.22
2023-06-26T15:21:05.970Z,33.14
2023-06-26T15:23:32.945Z,33.05
2023-06-26T15:26:00.285Z,32.98
2023-06-26T15:28:27.612Z,33.04
2023-06-26T15:30:54.927Z,33.15
2023-06-26T15:33:21.920Z,33.24
2023-06-26T15:35:49.363Z,33.17
2023-06-26T15:38:16.472Z,33.33
2023-06-26T15:40:44.366Z,33.63
2023-06-26T15:43:11.629Z,33.93
2023-06-26T15:45:39.097Z,34.14
2023-06-26T15:48:12.797Z,34.29
2023-06-26T15:50:40.345Z,34.46
2023-06-26T15:53:08.917Z,34.64
2023-06-26T15:55:37.430Z,34.52
2023-06-26T15:58:05.059Z,34.59
2023-06-26T16:00:32.559Z,34.72
2023-06-26T16:02:59.724Z,35.01
2023-06-26T16:05:27.320Z,34.77
2023-06-26T16:07:57.319Z,34.48
2023-06-26T16:10:26.343Z,34.21
2023-06-26T16:12:53.736Z,34.50
2023-06-26T16:15:22.431Z,34.61
2023-06-26T16:17:50.774Z,34.57
2023-06-26T16:20:18.410Z,34.54
2023-06-26T16:22:45.481Z,34.39
2023-06-26T16:25:12.868Z,34.23
2023-06-26T16:27:40.203Z,33.96
2023-06-26T16:30:08.707Z,33.91
2023-06-26T16:32:35.833Z,33.92
2023-06-26T16:35:07.029Z,33.87
2023-06-26T16:37:34.142Z,33.82
2023-06-26T16:40:01.351Z,33.78
2023-06-26T16:42:28.438Z,33.69
2023-06-26T16:44:56.191Z,33.66
2023-06-26T16:47:29.555Z,33.64
2023-06-26T16:49:58.838Z,33.52
2023-06-26T16:52:31.261Z,33.44
2023-06-26T16:54:58.529Z,33.37
2023-06-26T16:57:25.540Z,33.29
2023-06-26T16:59:53.856Z,33.20
2023-06-26T17:02:21.742Z,33.22
2023-06-26T17:04:48.931Z,33.16
2023-06-26T17:07:16.438Z,33.07
2023-06-26T17:09:43.411Z,33.01
2023-06-26T17:12:13.620Z,32.98
2023-06-26T17:14:40.592Z,32.91
2023-06-26T17:17:08.175Z,32.85
2023-06-26T17:19:39.362Z,32.85
2023-06-26T17:22:06.894Z,32.81
2023-06-26T17:24:34.215Z,32.74
2023-06-26T17:27:12.783Z,32.70
2023-06-26T17:29:41.483Z,32.68
2023-06-26T17:32:09.971Z,32.63
2023-06-26T17:34:37.251Z,32.59
2023-06-26T17:37:06.182Z,32.54
2023-06-26T17:39:34.273Z,32.48
2023-06-26T17:42:03.194Z,32.41
2023-06-26T17:44:30.711Z,32.38
2023-06-26T17:46:58.672Z,32.33
2023-06-26T17:49:25.800Z,32.29
2023-06-26T17:51:53.102Z,32.25
2023-06-26T17:54:20.099Z,32.19
2023-06-26T17:56:50.605Z,32.14
2023-06-26T17:59:17.620Z,32.09
2023-06-26T18:01:45.150Z,32.05
2023-06-26T18:04:17.243Z,32.04
2023-06-26T18:06:44.531Z,31.98
2023-06-26T18:09:11.452Z,31.96
2023-06-26T18:11:39.426Z,31.91
2023-06-26T18:14:06.872Z,31.86
2023-06-26T18:16:34.118Z,31.84
2023-06-26T18:19:01.123Z,31.81
2023-06-26T18:21:28.891Z,31.79
2023-06-26T18:23:56.561Z,31.74
2023-06-26T18:26:25.462Z,31.71
2023-06-26T18:28:54.241Z,31.68
2023-06-26T18:31:22.032Z,31.63
2023-06-26T18:33:49.699Z,31.57
2023-06-26T18:36:20.026Z,31.50
2023-06-26T18:38:47.457Z,31.41
2023-06-26T18:41:17.648Z,30.97
2023-06-26T18:43:48.471Z,30.67
2023-06-26T18:46:16.733Z,30.63
2023-06-26T18:48:43.995Z,30.37
2023-06-26T18:51:14.224Z,30.28
2023-06-26T18:53:45.169Z,29.89
2023-06-26T18:56:13.556Z,29.57
2023-06-26T18:58:40.609Z,29.24
2023-06-26T19:01:08.417Z,29.11
2023-06-26T19:03:35.546Z,28.95
2023-06-26T19:06:02.919Z,28.72
2023-06-26T19:08:30.186Z,28.76
2023-06-26T19:10:57.424Z,28.55
2023-06-26T19:13:27.419Z,28.27
2023-06-26T19:15:55.858Z,28.23
2023-06-26T19:18:22.879Z,28.17
2023-06-26T19:20:50.267Z,28.10
2023-06-26T19:23:19.825Z,27.98
2023-06-26T19:25:49.829Z,27.94
2023-06-26T19:28:16.792Z,27.76
2023-06-26T19:30:44.709Z,27.43
2023-06-26T19:33:11.911Z,27.44
2023-06-26T19:35:39.470Z,27.42
2023-06-26T19:38:08.589Z,27.16
2023-06-26T19:40:40.876Z,27.18
2023-06-26T19:43:11.892Z,27.19
2023-06-26T19:45:39.762Z,27.20
2023-06-26T19:48:07.064Z,26.93
2023-06-26T19:50:37.621Z,26.69
2023-06-26T19:53:05.751Z,26.28
2023-06-26T19:55:33.093Z,25.71
2023-06-26T19:58:02.745Z,25.40
2023-06-26T20:00:33.998Z,25.15
2023-06-26T20:03:01.247Z,24.99
2023-06-26T20:05:31.863Z,24.97
2023-06-26T20:07:59.017Z,24.87
2023-06-26T20:10:26.449Z,24.82
2023-06-26T20:12:56.094Z,24.82
2023-06-26T20:15:23.445Z,24.65
2023-06-26T20:17:53.006Z,24.52
2023-06-26T20:20:23.161Z,24.48
2023-06-26T20:22:52.338Z,24.36
2023-06-26T20:25:21.414Z,24.39
2023-06-26T20:27:53.389Z,24.39
2023-06-26T20:30:20.780Z,24.42
2023-06-26T20:32:50.656Z,24.46
2023-06-26T20:35:23.835Z,24.45
2023-06-26T20:37:50.899Z,24.51
2023-06-26T20:40:20.212Z,24.48
2023-06-26T20:42:47.586Z,24.44
2023-06-26T20:45:21.820Z,24.44
2023-06-26T20:47:55.057Z,24.44
2023-06-26T20:50:24.811Z,24.44
2023-06-26T20:52:56.536Z,24.46
2023-06-26T20:55:27.888Z,24.43
2023-06-26T20:57:56.653Z,24.44
2023-06-26T21:00:24.074Z,24.34
2023-06-26T21:02:54.297Z,24.23
2023-06-26T21:05:21.821Z,24.15
2023-06-26T21:07:54.128Z,24.13
2023-06-26T21:10:21.486Z,24.04
2023-06-26T21:12:48.620Z,24.04
2023-06-26T21:15:15.853Z,23.98
2023-06-26T21:17:42.979Z,23.92
2023-06-26T21:20:11.219Z,23.86
2023-06-26T21:22:38.305Z,23.81
2023-06-26T21:25:06.431Z,23.79
2023-06-26T21:27:33.465Z,23.77
2023-06-26T21:30:00.723Z,23.74
2023-06-26T21:32:27.979Z,23.74
2023-06-26T21:34:56.581Z,23.72
2023-06-26T21:37:23.464Z,23.66
2023-06-26T21:39:50.909Z,23.67
2023-06-26T21:42:17.900Z,23.69
2023-06-26T21:44:45.267Z,23.67
2023-06-26T21:47:12.339Z,23.71
2023-06-26T21:49:41.064Z,23.75
2023-06-26T21:52:08.272Z,23.78
2023-06-26T21:54:35.532Z,23.74
2023-06-26T21:57:02.530Z,23.59
2023-06-26T21:59:29.861Z,23.58
2023-06-26T22:01:56.856Z,23.52
2023-06-26T22:04:27.520Z,23.52
2023-06-26T22:06:56.165Z,23.50
2023-06-26T22:09:23.573Z,23.51
2023-06-26T22:11:53.199Z,23.46
2023-06-26T22:14:20.521Z,23.42
2023-06-26T22:16:48.294Z,23.45
2023-06-26T22:19:15.713Z,23.47
2023-06-26T22:21:48.362Z,23.46
2023-06-26T22:24:15.744Z,23.47
2023-06-26T22:26:42.842Z,23.45
2023-06-26T22:29:13.847Z,23.39
2023-06-26T22:31:40.946Z,23.38
2023-06-26T22:34:08.296Z,23.38
2023-06-26T22:36:35.345Z,23.41
2023-06-26T22:39:02.754Z,23.43
2023-06-26T22:41:29.921Z,23.49
2023-06-26T22:43:59.268Z,23.49
2023-06-26T22:46:26.273Z,23.51
2023-06-26T22:48:53.516Z,23.51
2023-06-26T22:51:20.639Z,23.47
2023-06-26T22:53:47.950Z,23.40
2023-06-26T22:56:15.011Z,23.45
2023-06-26T22:58:42.592Z,23.46
2023-06-26T23:01:15.565Z,23.48
2023-06-26T23:03:43.078Z,23.47
2023-06-26T23:06:10.545Z,23.49
2023-06-26T23:08:37.992Z,23.53
2023-06-26T23:11:04.911Z,23.52
2023-06-26T23:13:32.145Z,23.52
2023-06-26T23:15:59.194Z,23.50
2023-06-26T23:18:26.513Z,23.48
2023-06-26T23:20:53.651Z,23.48
2023-06-26T23:23:20.960Z,23.48
2023-06-26T23:25:47.878Z,23.48
2023-06-26T23:28:15.253Z,23.48
2023-06-26T23:30:45.229Z,23.46
2023-06-26T23:33:16.052Z,23.44
2023-06-26T23:35:48.000Z,23.38
2023-06-26T23:38:17.743Z,23.34
2023-06-26T23:40:45.065Z,23.31
2023-06-26T23:43:12.921Z,23.30
2023-06-26T23:45:40.534Z,23.25
2023-06-26T23:48:08.227Z,23.23
2023-06-26T23:50:35.229Z,23.22
2023-06-26T23:53:02.857Z,23.20
2023-06-26T23:55:30.024Z,23.09
2023-06-26T23:57:57.330Z,23.08
